createdAt,value
2022-08-16T00:06:29.697Z,18.27
2022-08-16T00:17:05.988Z,18.03
2022-08-16T00:26:57.630Z,18.18
2022-08-16T00:37:03.564Z,18.04
2022-08-16T00:47:12.963Z,18.02
2022-08-16T00:57:17.611Z,18.09
2022-08-16T01:07:20.828Z,17.98
2022-08-16T01:17:28.048Z,17.47
2022-08-16T01:27:45.974Z,17.39
2022-08-16T01:37:54.293Z,17.36
2022-08-16T01:47:58.999Z,17.68
2022-08-16T01:58:02.873Z,17.42
2022-08-16T02:08:07.725Z,17.43
2022-08-16T02:18:31.111Z,17.54
2022-08-16T02:28:38.126Z,18.03
2022-08-16T02:38:48.294Z,18.69
2022-08-16T02:48:54.755Z,19.46
2022-08-16T02:59:11.477Z,20.24
2022-08-16T03:09:19.161Z,20.34
2022-08-16T03:19:22.857Z,21.24
2022-08-16T03:29:30.318Z,22.38
2022-08-16T03:39:34.322Z,23.32
2022-08-16T03:49:52.001Z,23.24
2022-08-16T03:59:55.800Z,23.13
2022-08-16T04:10:00.381Z,23.68
2022-08-16T04:20:33.870Z,24.38
2022-08-16T04:30:40.936Z,24.72
2022-08-16T04:40:44.358Z,25.07
2022-08-16T04:50:52.711Z,25.54
2022-08-16T05:00:55.768Z,26.12
2022-08-16T05:11:05.371Z,26.51
2022-08-16T05:21:11.343Z,26.49
2022-08-16T05:31:17.446Z,26.36
2022-08-16T05:41:20.619Z,26.50
2022-08-16T05:51:37.609Z,26.98
2022-08-16T06:01:45.016Z,27.60
2022-08-16T06:11:49.653Z,27.87
2022-08-16T06:21:54.911Z,27.51
2022-08-16T06:32:00.517Z,27.32
2022-08-16T06:42:04.266Z,27.03
2022-08-16T06:52:55.483Z,27.17
2022-08-16T07:02:34.561Z,27.02
2022-08-16T07:12:47.401Z,27.23
2022-08-16T07:23:02.866Z,27.43
2022-08-16T07:33:51.523Z,27.61
2022-08-16T07:43:41.604Z,27.51
2022-08-16T07:54:04.135Z,27.37
2022-08-16T08:04:14.272Z,26.98
2022-08-16T08:14:29.725Z,26.54
2022-08-16T08:24:34.991Z,26.60
2022-08-16T08:34:41.284Z,26.80
2022-08-16T08:44:49.492Z,27.36
2022-08-16T08:54:54.069Z,27.62
2022-08-16T09:04:57.292Z,27.95
2022-08-16T09:15:02.296Z,27.91
2022-08-16T09:25:09.944Z,27.71
2022-08-16T09:35:16.178Z,27.59
2022-08-16T09:45:19.372Z,27.61
2022-08-16T09:55:26.776Z,27.64
2022-08-16T10:05:37.479Z,27.76
2022-08-16T10:15:44.495Z,27.94
2022-08-16T10:27:18.695Z,28.32
2022-08-16T10:36:38.771Z,28.48
2022-08-16T10:46:43.325Z,28.62
2022-08-16T10:56:55.523Z,28.65
2022-08-16T11:07:07.982Z,28.82
2022-08-16T11:17:13.732Z,28.99
2022-08-16T11:27:23.258Z,29.05
2022-08-16T11:38:04.494Z,29.10
2022-08-16T11:47:51.734Z,28.87
2022-08-16T11:57:57.407Z,28.80
2022-08-16T12:08:01.273Z,28.32
2022-08-16T12:18:10.836Z,28.25
2022-08-16T12:28:36.857Z,28.10
2022-08-16T12:38:48.984Z,28.31
2022-08-16T12:48:58.545Z,28.35
2022-08-16T12:59:09.581Z,28.21
2022-08-16T13:09:42.085Z,28.00
2022-08-16T13:30:35.691Z,27.69
2022-08-16T13:40:35.992Z,27.41
2022-08-16T13:50:51.453Z,27.13
2022-08-16T14:00:56.652Z,26.77
2022-08-16T14:11:00.689Z,26.00
2022-08-16T14:21:05.467Z,25.71
2022-08-16T14:31:11.527Z,25.27
2022-08-16T14:41:16.865Z,25.64
2022-08-16T14:51:20.897Z,25.40
2022-08-16T15:01:57.623Z,25.36
2022-08-16T15:11:50.448Z,25.00
2022-08-16T15:21:55.020Z,24.81
2022-08-16T15:32:00.993Z,24.78
2022-08-16T15:42:11.209Z,24.68
2022-08-16T15:52:20.686Z,24.72
2022-08-16T16:02:31.394Z,24.52
2022-08-16T16:12:53.996Z,24.39
2022-08-16T16:23:01.251Z,24.01
2022-08-16T16:33:04.440Z,23.72
2022-08-16T16:43:09.477Z,23.50
2022-08-16T16:53:18.141Z,23.16
2022-08-16T17:03:29.120Z,22.92
2022-08-16T17:13:33.105Z,22.72
2022-08-16T17:23:59.134Z,22.32
2022-08-16T17:34:01.187Z,22.18
2022-08-16T17:44:25.698Z,21.86
2022-08-16T17:54:30.769Z,22.08
2022-08-16T18:04:48.451Z,21.52
2022-08-16T18:14:54.918Z,20.93
2022-08-16T18:25:05.570Z,20.76
2022-08-16T18:35:09.273Z,21.01
2022-08-16T18:45:13.825Z,21.29
2022-08-16T18:55:16.961Z,21.14
2022-08-16T19:05:24.573Z,20.53
2022-08-16T19:15:29.233Z,20.48
2022-08-16T19:25:46.409Z,20.31
2022-08-16T19:35:51.593Z,20.62
2022-08-16T19:45:56.088Z,20.53
2022-08-16T19:55:59.104Z,20.47
2022-08-16T20:06:03.452Z,20.37
2022-08-16T20:16:06.763Z,20.28
2022-08-16T20:26:11.305Z,20.12
2022-08-16T20:36:16.021Z,19.98
2022-08-16T20:46:21.629Z,19.79
2022-08-16T20:56:24.877Z,19.62
2022-08-16T21:06:29.774Z,19.03
2022-08-16T21:16:33.440Z,18.93
2022-08-16T21:26:39.033Z,18.72
2022-08-16T21:36:42.480Z,18.83
2022-08-16T21:46:47.596Z,18.45
2022-08-16T21:56:51.591Z,18.12
2022-08-16T22:06:56.114Z,18.21
2022-08-16T22:16:59.121Z,18.18
2022-08-16T22:27:22.337Z,18.46
2022-08-16T22:38:50.243Z,18.42
2022-08-16T22:48:08.131Z,17.96
2022-08-16T22:58:14.101Z,17.71
2022-08-16T23:08:32.318Z,17.18
2022-08-16T23:18:42.994Z,17.41
2022-08-16T23:28:47.583Z,17.40
2022-08-16T23:38:50.644Z,17.73
2022-08-16T23:49:57.380Z,17.88
2022-08-16T23:59:18.463Z,17.84
